createdAt,value
2017-11-15T00:02:01.437Z,36.47
2017-11-15T00:04:36.571Z,28.70
2017-11-15T00:07:11.781Z,37.17
2017-11-15T00:09:47.308Z,35.83
2017-11-15T00:12:22.087Z,36.63
2017-11-15T00:14:57.432Z,34.33
2017-11-15T00:17:32.245Z,36.13
2017-11-15T00:20:07.420Z,35.77
2017-11-15T00:22:42.326Z,34.20
2017-11-15T00:25:17.146Z,32.90
2017-11-15T00:27:51.934Z,34.13
2017-11-15T00:30:26.895Z,37.27
2017-11-15T00:33:01.697Z,36.90
2017-11-15T00:35:36.789Z,34.87
2017-11-15T00:38:11.548Z,36.83
2017-11-15T00:40:46.668Z,33.80
2017-11-15T00:43:21.672Z,34.53
2017-11-15T00:45:56.326Z,33.77
2017-11-15T00:48:31.197Z,39.73
2017-11-15T00:51:06.312Z,34.47
2017-11-15T00:53:41.052Z,31.77
2017-11-15T00:56:15.937Z,36.03
2017-11-15T00:58:50.778Z,35.17
2017-11-15T01:01:25.565Z,32.73
2017-11-15T01:04:00.241Z,35.13
2017-11-15T01:06:35.171Z,35.93
2017-11-15T01:09:10.025Z,32.40
2017-11-15T01:11:44.755Z,35.27
2017-11-15T01:14:19.971Z,37.47
2017-11-15T01:16:54.640Z,32.60
2017-11-15T01:19:29.289Z,35.80
2017-11-15T01:22:04.844Z,34.10
2017-11-15T01:24:39.819Z,38.90
2017-11-15T01:27:14.849Z,37.17
2017-11-15T01:29:49.400Z,34.07
2017-11-15T01:32:24.371Z,41.00
2017-11-15T01:34:59.112Z,36.10
2017-11-15T01:37:33.941Z,43.27
2017-11-15T01:40:08.840Z,41.83
2017-11-15T01:42:43.297Z,43.17
2017-11-15T01:45:18.331Z,38.93
2017-11-15T01:47:53.368Z,40.20
2017-11-15T01:50:28.403Z,43.93
2017-11-15T01:53:03.380Z,42.67
2017-11-15T01:55:38.184Z,41.17
2017-11-15T01:58:13.197Z,47.67
2017-11-15T02:00:59.638Z,45.10
2017-11-15T02:03:34.572Z,50.87
2017-11-15T02:06:09.299Z,49.53
2017-11-15T02:08:44.371Z,58.77
2017-11-15T02:11:19.372Z,48.33
2017-11-15T02:13:53.757Z,59.40
2017-11-15T02:16:28.512Z,61.63
2017-11-15T02:19:03.516Z,57.40
2017-11-15T02:21:38.293Z,61.10
2017-11-15T02:24:12.894Z,58.97
2017-11-15T02:26:47.491Z,68.03
2017-11-15T02:29:22.260Z,65.60
2017-11-15T02:31:56.957Z,60.57
2017-11-15T02:34:32.009Z,66.27
2017-11-15T02:37:06.868Z,71.03
2017-11-15T02:39:41.177Z,68.70
2017-11-15T02:42:16.096Z,72.93
2017-11-15T02:44:50.548Z,65.80
2017-11-15T02:47:25.476Z,76.67
2017-11-15T02:50:00.637Z,79.17
2017-11-15T02:52:35.089Z,69.73
2017-11-15T02:55:10.419Z,72.20
2017-11-15T02:57:45.197Z,61.73
2017-11-15T03:00:19.859Z,76.70
2017-11-15T03:02:54.868Z,83.43
2017-11-15T03:05:29.740Z,75.50
2017-11-15T03:08:04.870Z,64.50
2017-11-15T03:10:39.775Z,67.50
2017-11-15T03:13:14.797Z,67.30
2017-11-15T03:15:49.708Z,69.70
2017-11-15T03:18:24.493Z,67.73
2017-11-15T03:20:59.066Z,58.37
2017-11-15T03:23:34.092Z,66.37
2017-11-15T03:26:08.607Z,68.47
2017-11-15T03:28:42.754Z,63.73
2017-11-15T03:31:17.422Z,74.00
2017-11-15T03:33:52.192Z,69.90
2017-11-15T03:36:26.739Z,73.10
2017-11-15T03:39:01.406Z,73.20
2017-11-15T03:41:36.720Z,66.07
2017-11-15T03:44:11.738Z,61.63
2017-11-15T03:46:46.588Z,60.30
2017-11-15T03:49:21.420Z,54.70
2017-11-15T03:51:56.159Z,57.33
2017-11-15T03:54:30.901Z,60.77
2017-11-15T03:57:05.739Z,57.53
2017-11-15T03:59:40.366Z,65.50
2017-11-15T04:02:14.793Z,67.10
2017-11-15T04:04:50.173Z,54.10
2017-11-15T04:07:24.670Z,59.90
2017-11-15T04:09:59.856Z,59.80
2017-11-15T04:12:34.781Z,59.33
2017-11-15T04:15:09.581Z,57.37
2017-11-15T04:17:44.560Z,50.40
2017-11-15T04:20:19.484Z,57.83
2017-11-15T04:22:54.416Z,55.37
2017-11-15T04:25:29.092Z,62.93
2017-11-15T04:28:03.969Z,63.00
2017-11-15T04:30:38.601Z,73.07
2017-11-15T04:33:13.590Z,64.40
2017-11-15T04:35:48.427Z,54.67
2017-11-15T04:38:23.552Z,54.40
2017-11-15T04:40:58.533Z,57.30
2017-11-15T04:43:33.665Z,57.13
2017-11-15T04:46:08.612Z,63.03
2017-11-15T04:48:43.599Z,67.37
2017-11-15T04:51:18.669Z,90.20
2017-11-15T04:53:53.937Z,68.00
2017-11-15T04:56:28.980Z,64.40
2017-11-15T04:59:03.431Z,66.23
2017-11-15T05:01:38.670Z,61.37
2017-11-15T05:04:13.601Z,58.60
2017-11-15T05:06:48.556Z,66.87
2017-11-15T05:09:23.363Z,86.00
2017-11-15T05:11:57.953Z,76.13
2017-11-15T05:14:32.798Z,79.33
2017-11-15T05:17:07.941Z,72.77
2017-11-15T05:19:44.633Z,78.77
2017-11-15T05:22:19.410Z,81.10
2017-11-15T05:24:54.183Z,68.63
2017-11-15T05:27:29.226Z,68.10
2017-11-15T05:30:03.457Z,73.70
2017-11-15T05:32:38.776Z,73.87
2017-11-15T05:35:13.376Z,79.73
2017-11-15T05:37:48.412Z,80.23
2017-11-15T05:40:23.260Z,91.17
2017-11-15T05:42:58.197Z,91.57
2017-11-15T05:45:33.085Z,101.27
2017-11-15T05:48:07.904Z,92.20
2017-11-15T05:50:42.799Z,96.13
2017-11-15T05:53:17.957Z,96.67
2017-11-15T05:55:52.761Z,98.63
2017-11-15T05:58:27.888Z,84.23
2017-11-15T06:01:02.500Z,96.00
2017-11-15T06:03:37.632Z,98.87
2017-11-15T06:06:12.579Z,97.17
2017-11-15T06:08:47.621Z,107.13
2017-11-15T06:11:22.278Z,96.27
2017-11-15T06:13:56.970Z,95.17
2017-11-15T06:16:32.376Z,87.70
2017-11-15T06:19:06.969Z,93.60
2017-11-15T06:21:41.884Z,105.23
2017-11-15T06:24:16.928Z,111.43
2017-11-15T06:26:51.583Z,103.07
2017-11-15T06:29:26.629Z,84.93
2017-11-15T06:32:01.229Z,99.97
2017-11-15T06:34:36.135Z,90.33
2017-11-15T06:37:10.992Z,103.87
2017-11-15T06:39:45.874Z,94.90
2017-11-15T06:42:20.820Z,89.10
2017-11-15T06:44:55.761Z,109.13
2017-11-15T06:47:30.604Z,95.00
2017-11-15T06:50:05.085Z,103.97
2017-11-15T06:52:40.388Z,102.77
2017-11-15T06:55:14.876Z,99.10
2017-11-15T06:57:50.239Z,99.40
2017-11-15T07:00:24.465Z,93.03
2017-11-15T07:02:59.845Z,90.03
2017-11-15T07:05:34.829Z,89.50
2017-11-15T07:08:09.881Z,100.20
2017-11-15T07:10:44.899Z,79.63
2017-11-15T07:13:20.141Z,89.60
2017-11-15T07:15:55.201Z,94.30
2017-11-15T07:18:30.573Z,92.33
2017-11-15T07:21:05.753Z,93.97
2017-11-15T07:23:40.868Z,101.40
2017-11-15T07:26:15.641Z,107.53
2017-11-15T07:28:50.589Z,104.40
2017-11-15T07:31:25.508Z,114.57
2017-11-15T07:34:00.517Z,93.13
2017-11-15T07:36:35.640Z,93.63
2017-11-15T07:39:10.093Z,92.73
2017-11-15T07:41:44.937Z,96.57
2017-11-15T07:44:19.478Z,97.27
2017-11-15T07:46:54.469Z,94.00
2017-11-15T07:49:29.237Z,86.10
2017-11-15T07:52:04.186Z,98.83
2017-11-15T07:54:39.423Z,93.80
2017-11-15T07:57:13.956Z,89.20
2017-11-15T07:59:49.237Z,93.20
2017-11-15T08:02:24.213Z,87.00
2017-11-15T08:04:59.003Z,98.47
2017-11-15T08:07:33.898Z,95.07
2017-11-15T08:10:08.905Z,85.43
2017-11-15T08:12:43.852Z,87.63
2017-11-15T08:15:18.908Z,84.63
2017-11-15T08:17:54.010Z,90.07
2017-11-15T08:20:29.322Z,80.40
2017-11-15T08:23:04.159Z,85.80
2017-11-15T08:25:39.205Z,69.27
2017-11-15T08:28:14.229Z,85.17
2017-11-15T08:30:49.116Z,87.00
2017-11-15T08:33:24.017Z,79.53
2017-11-15T08:35:58.816Z,81.13
2017-11-15T08:38:33.669Z,94.70
2017-11-15T08:41:08.429Z,85.60
2017-11-15T08:43:43.217Z,87.30
2017-11-15T08:46:17.840Z,83.17
2017-11-15T08:48:52.573Z,70.40
2017-11-15T08:51:27.705Z,81.37
2017-11-15T08:54:02.105Z,81.83
2017-11-15T08:56:37.084Z,72.67
2017-11-15T08:59:11.906Z,83.73
2017-11-15T09:01:46.913Z,86.90
2017-11-15T09:04:21.641Z,84.43
2017-11-15T09:06:56.723Z,96.43
2017-11-15T09:09:31.572Z,93.20
2017-11-15T09:12:06.453Z,76.27
2017-11-15T09:14:41.405Z,90.17
2017-11-15T09:17:16.221Z,84.37
2017-11-15T09:19:51.349Z,78.87
2017-11-15T09:22:26.120Z,78.50
2017-11-15T09:25:01.062Z,79.90
2017-11-15T09:27:36.004Z,72.63
2017-11-15T09:30:10.687Z,81.10
2017-11-15T09:32:45.836Z,83.63
2017-11-15T09:35:21.404Z,76.00
2017-11-15T09:37:56.513Z,87.13
2017-11-15T09:40:31.801Z,76.13
2017-11-15T09:43:06.825Z,83.57
2017-11-15T09:45:41.856Z,84.83
2017-11-15T09:48:17.017Z,72.83
2017-11-15T09:50:51.723Z,80.20
2017-11-15T09:53:26.442Z,77.10
2017-11-15T09:56:01.276Z,72.13
2017-11-15T09:58:36.125Z,64.53
2017-11-15T10:01:11.026Z,65.67
2017-11-15T10:03:45.928Z,70.67
2017-11-15T10:06:20.710Z,68.10
2017-11-15T10:08:55.625Z,65.40
2017-11-15T10:11:30.696Z,76.80
2017-11-15T10:14:05.495Z,77.03
2017-11-15T10:16:40.728Z,68.33
2017-11-15T10:19:15.601Z,61.67
2017-11-15T10:21:50.581Z,65.30
2017-11-15T10:24:25.457Z,73.80
2017-11-15T10:27:00.470Z,73.80
2017-11-15T10:29:35.308Z,72.40
2017-11-15T10:32:10.322Z,74.93
2017-11-15T10:34:45.244Z,76.93
2017-11-15T10:37:20.173Z,67.77
2017-11-15T10:39:55.224Z,73.70
2017-11-15T10:42:30.257Z,66.70
2017-11-15T10:45:05.213Z,74.50
2017-11-15T10:47:40.089Z,61.77
2017-11-15T10:50:14.558Z,66.93
2017-11-15T10:52:49.491Z,60.60
2017-11-15T10:55:24.498Z,67.13
2017-11-15T10:57:59.478Z,63.77
2017-11-15T11:00:39.859Z,57.83
2017-11-15T11:03:14.809Z,61.40
2017-11-15T11:05:49.364Z,70.10
2017-11-15T11:08:24.512Z,63.90
2017-11-15T11:10:59.245Z,62.70
2017-11-15T11:13:34.325Z,59.00
2017-11-15T11:16:09.551Z,62.93
2017-11-15T11:18:44.530Z,64.50
2017-11-15T11:21:19.782Z,62.47
2017-11-15T11:23:54.272Z,68.40
2017-11-15T11:26:29.162Z,64.30
2017-11-15T11:29:04.361Z,63.20
2017-11-15T11:31:38.873Z,62.67
2017-11-15T11:34:13.724Z,63.67
2017-11-15T11:36:48.528Z,50.70
2017-11-15T11:39:23.529Z,50.47
2017-11-15T11:41:58.437Z,53.00
2017-11-15T11:44:33.485Z,53.70
2017-11-15T11:47:08.237Z,62.43
2017-11-15T11:49:43.126Z,52.23
2017-11-15T11:52:17.964Z,58.27
2017-11-15T11:54:52.805Z,59.83
2017-11-15T11:57:27.546Z,53.60
2017-11-15T12:00:02.263Z,59.07
2017-11-15T12:02:37.796Z,56.80
2017-11-15T12:05:12.972Z,58.00
2017-11-15T12:07:48.234Z,58.00
2017-11-15T12:10:28.292Z,63.60
2017-11-15T12:13:02.857Z,46.60
2017-11-15T12:15:37.538Z,55.93
2017-11-15T12:18:12.524Z,50.17
2017-11-15T12:20:47.193Z,57.03
2017-11-15T12:23:21.896Z,56.87
2017-11-15T12:25:56.492Z,61.43
2017-11-15T12:28:31.344Z,53.60
2017-11-15T12:31:06.419Z,54.83
2017-11-15T12:33:40.797Z,60.80
2017-11-15T12:36:15.629Z,58.70
2017-11-15T12:38:50.467Z,60.13
2017-11-15T12:41:25.069Z,54.37
2017-11-15T12:44:00.121Z,50.40
2017-11-15T12:46:34.965Z,51.07
2017-11-15T12:49:09.557Z,57.73
2017-11-15T12:51:44.560Z,57.90
2017-11-15T12:54:19.199Z,60.57
2017-11-15T12:56:54.253Z,68.13
2017-11-15T12:59:29.224Z,60.77
2017-11-15T13:02:04.470Z,61.73
2017-11-15T13:04:38.848Z,65.87
2017-11-15T13:07:13.229Z,52.57
2017-11-15T13:09:47.985Z,52.47
2017-11-15T13:12:22.957Z,56.23
2017-11-15T13:14:58.192Z,54.00
2017-11-15T13:17:33.144Z,71.87
2017-11-15T13:20:08.473Z,64.87
2017-11-15T13:22:43.428Z,54.20
2017-11-15T13:25:18.329Z,51.70
2017-11-15T13:27:52.821Z,63.33
2017-11-15T13:30:27.933Z,63.93
2017-11-15T13:33:02.747Z,61.33
2017-11-15T13:35:37.167Z,60.47
2017-11-15T13:38:12.318Z,61.03
2017-11-15T13:40:47.349Z,54.70
2017-11-15T13:43:21.869Z,58.27
2017-11-15T13:45:57.006Z,55.97
2017-11-15T13:48:32.001Z,61.57
2017-11-15T13:51:06.884Z,59.90
2017-11-15T13:53:41.614Z,58.37
2017-11-15T13:56:16.749Z,53.40
2017-11-15T13:58:51.666Z,58.17
2017-11-15T14:01:26.598Z,57.63
2017-11-15T14:04:01.601Z,54.63
2017-11-15T14:06:36.265Z,55.10
2017-11-15T14:09:11.084Z,53.57
2017-11-15T14:11:45.914Z,56.33
2017-11-15T14:14:20.984Z,60.73
2017-11-15T14:16:55.725Z,61.10
2017-11-15T14:19:30.656Z,58.77
2017-11-15T14:22:05.358Z,59.43
2017-11-15T14:24:40.480Z,61.13
2017-11-15T14:27:22.029Z,52.67
2017-11-15T14:29:56.721Z,52.93
2017-11-15T14:32:32.023Z,60.93
2017-11-15T14:35:06.817Z,54.17
2017-11-15T14:37:41.718Z,59.87
2017-11-15T14:40:16.745Z,53.30
2017-11-15T14:42:51.576Z,58.40
2017-11-15T14:45:26.153Z,57.87
2017-11-15T14:48:00.991Z,59.10
2017-11-15T14:50:35.786Z,58.17
2017-11-15T14:53:10.707Z,65.97
2017-11-15T14:55:45.617Z,64.80
2017-11-15T14:58:20.553Z,60.17
2017-11-15T15:00:55.249Z,66.20
2017-11-15T15:03:30.157Z,65.73
2017-11-15T15:06:05.149Z,64.80
2017-11-15T15:08:40.189Z,58.23
2017-11-15T15:11:14.913Z,59.57
2017-11-15T15:13:49.736Z,63.87
2017-11-15T15:16:24.535Z,58.70
2017-11-15T15:18:59.233Z,55.27
2017-11-15T15:21:34.052Z,55.83
2017-11-15T15:24:08.777Z,54.17
2017-11-15T15:26:43.572Z,57.17
2017-11-15T15:29:18.404Z,54.63
2017-11-15T15:31:53.852Z,52.07
2017-11-15T15:34:29.294Z,64.00
2017-11-15T15:37:03.945Z,54.00
2017-11-15T15:39:39.112Z,55.90
2017-11-15T15:42:14.321Z,54.80
2017-11-15T15:44:49.465Z,56.67
2017-11-15T15:47:24.157Z,51.57
2017-11-15T15:49:59.118Z,59.73
2017-11-15T15:52:33.864Z,48.23
2017-11-15T15:55:08.764Z,54.90
2017-11-15T15:57:43.553Z,51.87
2017-11-15T16:00:18.457Z,55.43
2017-11-15T16:02:53.509Z,54.80
2017-11-15T16:05:28.385Z,54.47
2017-11-15T16:08:03.157Z,47.47
2017-11-15T16:10:38.518Z,56.33
2017-11-15T16:13:13.143Z,48.20
2017-11-15T16:15:47.949Z,52.17
2017-11-15T16:18:22.724Z,54.67
2017-11-15T16:20:57.623Z,48.87
2017-11-15T16:23:32.480Z,49.13
2017-11-15T16:26:07.597Z,52.13
2017-11-15T16:28:42.614Z,49.40
2017-11-15T16:31:17.240Z,48.37
2017-11-15T16:33:52.389Z,47.63
2017-11-15T16:36:27.354Z,44.23
2017-11-15T16:39:04.201Z,47.30
2017-11-15T16:41:39.707Z,50.97
2017-11-15T16:44:14.652Z,47.53
2017-11-15T16:46:50.029Z,44.73
2017-11-15T16:49:24.985Z,41.27
2017-11-15T16:51:59.896Z,49.10
2017-11-15T16:54:35.026Z,44.87
2017-11-15T16:57:10.165Z,46.93
2017-11-15T16:59:44.997Z,43.17
2017-11-15T17:02:19.945Z,45.87
2017-11-15T17:04:54.795Z,45.50
2017-11-15T17:07:29.721Z,47.57
2017-11-15T17:10:04.579Z,45.70
2017-11-15T17:12:39.400Z,46.90
2017-11-15T17:15:14.290Z,49.07
2017-11-15T17:17:49.117Z,44.50
2017-11-15T17:20:24.054Z,40.63
2017-11-15T17:22:59.217Z,47.43
2017-11-15T17:25:34.052Z,46.10
2017-11-15T17:28:09.059Z,41.47
2017-11-15T17:30:43.752Z,50.77
2017-11-15T17:33:18.653Z,43.40
2017-11-15T17:35:53.617Z,43.80
2017-11-15T17:38:28.561Z,42.23
2017-11-15T17:41:03.458Z,42.60
2017-11-15T17:43:38.205Z,42.53
2017-11-15T17:46:12.704Z,42.57
2017-11-15T17:48:48.051Z,45.17
2017-11-15T17:51:22.704Z,42.90
2017-11-15T17:53:57.905Z,41.10
2017-11-15T17:56:32.940Z,41.03
2017-11-15T17:59:08.086Z,47.60
2017-11-15T18:01:43.393Z,46.40
2017-11-15T18:04:18.745Z,41.30
2017-11-15T18:06:53.976Z,35.20
2017-11-15T18:09:29.030Z,37.33
2017-11-15T18:12:03.948Z,40.90
2017-11-15T18:14:38.786Z,36.73
2017-11-15T18:17:13.708Z,37.77
2017-11-15T18:19:48.457Z,34.63
2017-11-15T18:22:23.468Z,41.80
2017-11-15T18:24:58.388Z,40.20
2017-11-15T18:27:33.257Z,38.77
2017-11-15T18:30:08.040Z,36.13
2017-11-15T18:32:43.310Z,34.20
2017-11-15T18:35:18.232Z,36.13
2017-11-15T18:37:53.949Z,34.30
2017-11-15T18:40:28.947Z,34.07
2017-11-15T18:43:03.977Z,33.83
2017-11-15T18:45:39.169Z,34.70
2017-11-15T18:48:14.065Z,38.30
2017-11-15T18:50:49.083Z,35.73
2017-11-15T18:53:24.136Z,34.30
2017-11-15T18:55:59.185Z,33.23
2017-11-15T18:58:34.274Z,35.27
2017-11-15T19:01:09.368Z,36.37
2017-11-15T19:03:44.404Z,37.13
2017-11-15T19:06:19.220Z,30.77
2017-11-15T19:08:54.315Z,34.30
2017-11-15T19:11:29.381Z,31.20
2017-11-15T19:14:04.688Z,37.90
2017-11-15T19:16:39.565Z,34.43
2017-11-15T19:19:14.844Z,33.60
2017-11-15T19:21:49.675Z,32.00
2017-11-15T19:24:24.367Z,33.23
2017-11-15T19:26:59.281Z,33.23
2017-11-15T19:29:33.793Z,37.63
2017-11-15T19:32:08.267Z,33.77
2017-11-15T19:34:43.185Z,33.87
2017-11-15T19:37:18.090Z,30.80
2017-11-15T19:39:53.098Z,32.40
2017-11-15T19:42:27.944Z,34.50
2017-11-15T19:45:03.076Z,32.53
2017-11-15T19:47:37.858Z,35.77
2017-11-15T19:50:12.911Z,36.47
2017-11-15T19:52:47.809Z,35.60
2017-11-15T19:55:22.741Z,34.50
2017-11-15T19:57:57.532Z,32.03
2017-11-15T20:00:32.489Z,33.53
2017-11-15T20:03:07.548Z,33.80
2017-11-15T20:05:42.448Z,33.97
2017-11-15T20:08:17.272Z,37.63
2017-11-15T20:10:52.163Z,31.40
2017-11-15T20:13:26.969Z,33.73
2017-11-15T20:16:01.781Z,42.83
2017-11-15T20:18:36.696Z,39.70
2017-11-15T20:21:11.627Z,38.63
2017-11-15T20:23:46.680Z,35.03
2017-11-15T20:26:21.437Z,31.83
2017-11-15T20:28:57.032Z,33.80
2017-11-15T20:31:31.864Z,33.80
2017-11-15T20:34:06.798Z,33.27
2017-11-15T20:36:41.582Z,33.37
2017-11-15T20:39:16.401Z,34.20
2017-11-15T20:41:51.554Z,34.47
2017-11-15T20:44:26.585Z,30.03
2017-11-15T20:47:01.616Z,33.03
2017-11-15T20:49:36.629Z,31.60
2017-11-15T20:52:11.521Z,30.73
2017-11-15T20:54:46.451Z,29.60
2017-11-15T20:57:21.565Z,29.07
2017-11-15T20:59:56.489Z,31.00
2017-11-15T21:02:31.838Z,30.90
2017-11-15T21:05:06.668Z,32.67
2017-11-15T21:07:41.507Z,31.27
2017-11-15T21:10:16.434Z,28.27
2017-11-15T21:12:51.381Z,33.77
2017-11-15T21:15:26.191Z,27.10
2017-11-15T21:18:01.233Z,29.60
2017-11-15T21:20:36.064Z,31.73
2017-11-15T21:23:11.001Z,28.90
2017-11-15T21:25:45.697Z,32.57
2017-11-15T21:28:21.054Z,29.17
2017-11-15T21:30:56.204Z,30.60
2017-11-15T21:33:31.533Z,37.80
2017-11-15T21:36:06.362Z,33.07
2017-11-15T21:38:41.685Z,28.97
2017-11-15T21:41:16.765Z,29.80
2017-11-15T21:43:51.874Z,26.83
2017-11-15T21:46:26.900Z,30.50
2017-11-15T21:49:01.945Z,27.43
2017-11-15T21:51:36.981Z,27.80
2017-11-15T21:54:11.536Z,28.67
2017-11-15T21:56:46.288Z,31.50
2017-11-15T21:59:21.313Z,34.40
2017-11-15T22:01:56.408Z,23.97
2017-11-15T22:04:31.217Z,33.83
2017-11-15T22:07:06.309Z,27.23
2017-11-15T22:09:41.232Z,26.23
2017-11-15T22:12:15.941Z,30.57
2017-11-15T22:14:50.945Z,23.73
2017-11-15T22:17:25.842Z,28.80
2017-11-15T22:20:00.890Z,29.10
2017-11-15T22:22:35.880Z,27.17
2017-11-15T22:25:11.020Z,29.90
2017-11-15T22:27:46.049Z,29.17
2017-11-15T22:30:21.058Z,27.97
2017-11-15T22:32:55.829Z,30.73
2017-11-15T22:35:30.681Z,30.00
2017-11-15T22:38:05.565Z,27.70
2017-11-15T22:40:40.614Z,28.70
2017-11-15T22:43:15.620Z,27.23
2017-11-15T22:45:50.822Z,26.30
2017-11-15T22:48:25.871Z,27.10
2017-11-15T22:51:00.977Z,33.10
2017-11-15T22:53:35.946Z,32.43
2017-11-15T22:56:10.633Z,30.33
2017-11-15T22:58:45.668Z,23.03
2017-11-15T23:01:20.433Z,27.30
2017-11-15T23:03:55.276Z,29.20
2017-11-15T23:06:30.173Z,23.20
2017-11-15T23:09:04.583Z,23.03
2017-11-15T23:11:39.733Z,26.97
2017-11-15T23:14:13.966Z,27.63
2017-11-15T23:16:48.988Z,28.33
2017-11-15T23:19:23.688Z,25.87
2017-11-15T23:21:58.429Z,28.10
2017-11-15T23:24:33.301Z,28.33
2017-11-15T23:27:07.765Z,30.53
2017-11-15T23:29:42.964Z,27.70
2017-11-15T23:32:18.077Z,25.97
2017-11-15T23:34:52.908Z,28.30
2017-11-15T23:37:27.810Z,30.63
2017-11-15T23:40:02.744Z,29.43
2017-11-15T23:42:37.777Z,26.97
2017-11-15T23:45:12.627Z,26.90
2017-11-15T23:47:47.550Z,25.57
2017-11-15T23:50:22.518Z,26.27
2017-11-15T23:52:57.444Z,24.70
2017-11-15T23:55:32.886Z,26.40
2017-11-15T23:58:07.561Z,24.97
